sensor_id;sensor_type;location;lat;lon;timestamp;temperature;humidity
12971;DHT22;6550;48.650;8.774;2024-02-15T00:01:02;10.00;99.90
12971;DHT22;6550;48.650;8.774;2024-02-15T00:05:58;10.00;99.90
12971;DHT22;6550;48.650;8.774;2024-02-15T00:08:25;9.80;99.90
12971;DHT22;6550;48.650;8.774;2024-02-15T00:10:53;10.00;99.90
12971;DHT22;6550;48.650;8.774;2024-02-15T00:13:24;10.00;99.90
12971;DHT22;6550;48.650;8.774;2024-02-15T00:15:54;10.00;99.90
12971;DHT22;6550;48.650;8.774;2024-02-15T00:18:20;9.80;99.90
12971;DHT22;6550;48.650;8.774;2024-02-15T00:20:50;9.40;99.90
12971;DHT22;6550;48.650;8.774;2024-02-15T00:23:24;9.70;99.90
12971;DHT22;6550;48.650;8.774;2024-02-15T00:25:54;9.80;99.90
12971;DHT22;6550;48.650;8.774;2024-02-15T00:28:23;9.70;99.90
12971;DHT22;6550;48.650;8.774;2024-02-15T00:30:50;9.70;99.90
12971;DHT22;6550;48.650;8.774;2024-02-15T00:33:17;9.60;99.90
12971;DHT22;6550;48.650;8.774;2024-02-15T00:38:21;9.60;99.90
12971;DHT22;6550;48.650;8.774;2024-02-15T00:40:48;9.60;99.90
12971;DHT22;6550;48.650;8.774;2024-02-15T00:43:14;9.60;99.90
12971;DHT22;6550;48.650;8.774;2024-02-15T00:45:41;9.60;99.90
12971;DHT22;6550;48.650;8.774;2024-02-15T00:48:10;9.50;99.90
12971;DHT22;6550;48.650;8.774;2024-02-15T00:50:37;9.50;99.90
12971;DHT22;6550;48.650;8.774;2024-02-15T00:53:07;9.60;99.90
12971;DHT22;6550;48.650;8.774;2024-02-15T00:55:34;9.50;99.90
12971;DHT22;6550;48.650;8.774;2024-02-15T00:58:03;9.40;99.90
12971;DHT22;6550;48.650;8.774;2024-02-15T01:00:32;9.30;99.90
12971;DHT22;6550;48.650;8.774;2024-02-15T01:02:59;9.40;99.90
12971;DHT22;6550;48.650;8.774;2024-02-15T01:05:26;9.20;99.90
12971;DHT22;6550;48.650;8.774;2024-02-15T01:07:55;9.40;99.90
12971;DHT22;6550;48.650;8.774;2024-02-15T01:10:22;9.30;99.90
12971;DHT22;6550;48.650;8.774;2024-02-15T01:12:51;9.20;99.90
12971;DHT22;6550;48.650;8.774;2024-02-15T01:15:20;9.10;99.90
12971;DHT22;6550;48.650;8.774;2024-02-15T01:17:49;9.10;99.90
12971;DHT22;6550;48.650;8.774;2024-02-15T01:20:16;9.00;99.90
12971;DHT22;6550;48.650;8.774;2024-02-15T01:22:43;9.00;99.90
12971;DHT22;6550;48.650;8.774;2024-02-15T01:25:13;9.00;99.90
12971;DHT22;6550;48.650;8.774;2024-02-15T01:27:42;8.90;99.90
12971;DHT22;6550;48.650;8.774;2024-02-15T01:30:09;8.80;99.90
12971;DHT22;6550;48.650;8.774;2024-02-15T01:35:06;8.90;99.90
12971;DHT22;6550;48.650;8.774;2024-02-15T01:37:36;8.60;99.90
12971;DHT22;6550;48.650;8.774;2024-02-15T01:40:05;8.70;99.90
12971;DHT22;6550;48.650;8.774;2024-02-15T01:42:34;8.70;99.90
12971;DHT22;6550;48.650;8.774;2024-02-15T01:45:02;8.70;99.90
12971;DHT22;6550;48.650;8.774;2024-02-15T01:47:31;8.80;99.90
12971;DHT22;6550;48.650;8.774;2024-02-15T01:49:59;8.50;99.90
12971;DHT22;6550;48.650;8.774;2024-02-15T01:52:28;8.70;99.90
12971;DHT22;6550;48.650;8.774;2024-02-15T01:54:57;8.40;99.90
12971;DHT22;6550;48.650;8.774;2024-02-15T01:57:24;8.60;99.90
12971;DHT22;6550;48.650;8.774;2024-02-15T02:02:20;8.60;99.90
12971;DHT22;6550;48.650;8.774;2024-02-15T02:04:49;10.30;99.90
12971;DHT22;6550;48.650;8.774;2024-02-15T02:07:19;8.40;99.90
12971;DHT22;6550;48.650;8.774;2024-02-15T02:09:46;8.40;99.90
12971;DHT22;6550;48.650;8.774;2024-02-15T02:12:13;8.30;99.90
12971;DHT22;6550;48.650;8.774;2024-02-15T02:14:40;8.70;99.90
12971;DHT22;6550;48.650;8.774;2024-02-15T02:17:11;8.30;99.90
12971;DHT22;6550;48.650;8.774;2024-02-15T02:19:42;8.20;99.90
12971;DHT22;6550;48.650;8.774;2024-02-15T02:22:12;8.30;99.90
12971;DHT22;6550;48.650;8.774;2024-02-15T02:27:40;8.20;99.90
12971;DHT22;6550;48.650;8.774;2024-02-15T02:30:15;8.20;99.90
12971;DHT22;6550;48.650;8.774;2024-02-15T02:32:42;8.10;99.90
12971;DHT22;6550;48.650;8.774;2024-02-15T02:35:09;8.00;99.90
12971;DHT22;6550;48.650;8.774;2024-02-15T02:37:39;8.30;99.90
12971;DHT22;6550;48.650;8.774;2024-02-15T02:40:06;8.00;99.90
12971;DHT22;6550;48.650;8.774;2024-02-15T02:42:53;8.00;99.90
12971;DHT22;6550;48.650;8.774;2024-02-15T02:45:20;8.00;99.90
12971;DHT22;6550;48.650;8.774;2024-02-15T02:47:49;8.00;99.90
12971;DHT22;6550;48.650;8.774;2024-02-15T02:50:25;8.00;99.90
12971;DHT22;6550;48.650;8.774;2024-02-15T02:52:52;8.00;99.90
12971;DHT22;6550;48.650;8.774;2024-02-15T02:55:22;7.90;99.90
12971;DHT22;6550;48.650;8.774;2024-02-15T02:57:48;7.90;99.90
12971;DHT22;6550;48.650;8.774;2024-02-15T03:00:16;7.80;99.90
12971;DHT22;6550;48.650;8.774;2024-02-15T03:02:44;7.80;99.90
12971;DHT22;6550;48.650;8.774;2024-02-15T03:05:14;7.70;99.90
12971;DHT22;6550;48.650;8.774;2024-02-15T03:07:44;7.70;99.90
12971;DHT22;6550;48.650;8.774;2024-02-15T03:12:43;7.80;99.90
12971;DHT22;6550;48.650;8.774;2024-02-15T03:15:16;7.60;99.90
12971;DHT22;6550;48.650;8.774;2024-02-15T03:17:47;7.70;99.90
12971;DHT22;6550;48.650;8.774;2024-02-15T03:20:17;7.70;99.90
12971;DHT22;6550;48.650;8.774;2024-02-15T03:22:58;7.60;99.90
12971;DHT22;6550;48.650;8.774;2024-02-15T03:25:29;7.70;99.90
12971;DHT22;6550;48.650;8.774;2024-02-15T03:27:57;7.70;99.90
12971;DHT22;6550;48.650;8.774;2024-02-15T03:30:31;7.90;99.90
12971;DHT22;6550;48.650;8.774;2024-02-15T03:33:01;7.70;99.90
12971;DHT22;6550;48.650;8.774;2024-02-15T03:35:37;7.60;99.90
12971;DHT22;6550;48.650;8.774;2024-02-15T03:38:06;7.80;99.90
12971;DHT22;6550;48.650;8.774;2024-02-15T03:40:36;7.60;99.90
12971;DHT22;6550;48.650;8.774;2024-02-15T03:43:10;7.60;99.90
12971;DHT22;6550;48.650;8.774;2024-02-15T03:45:36;7.70;99.90
12971;DHT22;6550;48.650;8.774;2024-02-15T03:48:03;7.60;99.90
12971;DHT22;6550;48.650;8.774;2024-02-15T03:50:32;7.60;99.90
12971;DHT22;6550;48.650;8.774;2024-02-15T03:52:59;7.80;99.90
12971;DHT22;6550;48.650;8.774;2024-02-15T03:55:27;7.70;99.90
12971;DHT22;6550;48.650;8.774;2024-02-15T03:57:56;7.90;99.90
12971;DHT22;6550;48.650;8.774;2024-02-15T04:00:24;7.60;99.90
12971;DHT22;6550;48.650;8.774;2024-02-15T04:02:53;7.70;99.90
12971;DHT22;6550;48.650;8.774;2024-02-15T04:05:21;7.60;99.90
12971;DHT22;6550;48.650;8.774;2024-02-15T04:07:55;7.60;99.90
12971;DHT22;6550;48.650;8.774;2024-02-15T04:10:22;7.90;99.90
12971;DHT22;6550;48.650;8.774;2024-02-15T04:12:49;7.70;99.90
12971;DHT22;6550;48.650;8.774;2024-02-15T04:15:19;7.80;99.90
12971;DHT22;6550;48.650;8.774;2024-02-15T04:17:48;7.80;99.90
12971;DHT22;6550;48.650;8.774;2024-02-15T04:20:22;7.90;99.90
12971;DHT22;6550;48.650;8.774;2024-02-15T04:22:51;7.70;99.90
12971;DHT22;6550;48.650;8.774;2024-02-15T04:25:20;7.80;99.90
12971;DHT22;6550;48.650;8.774;2024-02-15T04:27:49;7.80;99.90
12971;DHT22;6550;48.650;8.774;2024-02-15T04:30:16;8.00;99.90
12971;DHT22;6550;48.650;8.774;2024-02-15T04:32:44;7.90;99.90
12971;DHT22;6550;48.650;8.774;2024-02-15T04:35:16;7.90;99.90
12971;DHT22;6550;48.650;8.774;2024-02-15T04:37:46;8.50;99.90
12971;DHT22;6550;48.650;8.774;2024-02-15T04:40:16;7.80;99.90
12971;DHT22;6550;48.650;8.774;2024-02-15T04:42:44;7.70;99.90
12971;DHT22;6550;48.650;8.774;2024-02-15T04:45:13;7.70;99.90
12971;DHT22;6550;48.650;8.774;2024-02-15T04:47:44;9.10;99.90
12971;DHT22;6550;48.650;8.774;2024-02-15T04:50:17;7.90;99.90
12971;DHT22;6550;48.650;8.774;2024-02-15T04:52:47;7.70;99.90
12971;DHT22;6550;48.650;8.774;2024-02-15T04:55:18;7.80;99.90
12971;DHT22;6550;48.650;8.774;2024-02-15T04:57:52;7.60;99.90
12971;DHT22;6550;48.650;8.774;2024-02-15T05:00:23;7.70;99.90
12971;DHT22;6550;48.650;8.774;2024-02-15T05:02:55;7.70;99.90
12971;DHT22;6550;48.650;8.774;2024-02-15T05:05:22;7.70;99.90
12971;DHT22;6550;48.650;8.774;2024-02-15T05:07:50;7.70;99.90
12971;DHT22;6550;48.650;8.774;2024-02-15T05:10:17;7.70;99.90
12971;DHT22;6550;48.650;8.774;2024-02-15T05:12:47;7.70;99.90
12971;DHT22;6550;48.650;8.774;2024-02-15T05:15:17;7.80;99.90
12971;DHT22;6550;48.650;8.774;2024-02-15T05:17:47;7.70;99.90
12971;DHT22;6550;48.650;8.774;2024-02-15T05:20:15;8.00;99.90
12971;DHT22;6550;48.650;8.774;2024-02-15T05:22:42;7.30;99.90
12971;DHT22;6550;48.650;8.774;2024-02-15T05:25:17;7.80;99.90
12971;DHT22;6550;48.650;8.774;2024-02-15T05:30:22;7.70;99.90
12971;DHT22;6550;48.650;8.774;2024-02-15T05:32:50;7.70;99.90
12971;DHT22;6550;48.650;8.774;2024-02-15T05:35:19;7.80;99.90
12971;DHT22;6550;48.650;8.774;2024-02-15T05:37:46;7.70;99.90
12971;DHT22;6550;48.650;8.774;2024-02-15T05:40:15;7.90;99.90
12971;DHT22;6550;48.650;8.774;2024-02-15T05:42:45;7.90;99.90
12971;DHT22;6550;48.650;8.774;2024-02-15T05:47:52;7.80;99.90
12971;DHT22;6550;48.650;8.774;2024-02-15T05:50:19;7.70;99.90
12971;DHT22;6550;48.650;8.774;2024-02-15T05:52:48;7.80;99.90
12971;DHT22;6550;48.650;8.774;2024-02-15T05:55:15;7.70;99.90
12971;DHT22;6550;48.650;8.774;2024-02-15T05:57:49;7.70;99.90
12971;DHT22;6550;48.650;8.774;2024-02-15T06:02:49;7.70;99.90
12971;DHT22;6550;48.650;8.774;2024-02-15T06:07:44;7.80;99.90
12971;DHT22;6550;48.650;8.774;2024-02-15T06:10:13;7.20;99.90
12971;DHT22;6550;48.650;8.774;2024-02-15T06:12:45;7.80;99.90
12971;DHT22;6550;48.650;8.774;2024-02-15T06:15:12;7.40;99.90
12971;DHT22;6550;48.650;8.774;2024-02-15T06:17:43;8.00;99.90
12971;DHT22;6550;48.650;8.774;2024-02-15T06:20:12;7.90;99.90
12971;DHT22;6550;48.650;8.774;2024-02-15T06:22:41;7.80;99.90
12971;DHT22;6550;48.650;8.774;2024-02-15T06:27:37;7.80;99.90
12971;DHT22;6550;48.650;8.774;2024-02-15T06:30:08;7.70;99.90
12971;DHT22;6550;48.650;8.774;2024-02-15T06:32:54;7.90;99.90
12971;DHT22;6550;48.650;8.774;2024-02-15T06:35:40;7.60;99.90
12971;DHT22;6550;48.650;8.774;2024-02-15T06:38:25;7.60;99.90
12971;DHT22;6550;48.650;8.774;2024-02-15T06:41:13;8.00;99.90
12971;DHT22;6550;48.650;8.774;2024-02-15T06:43:40;7.90;99.90
12971;DHT22;6550;48.650;8.774;2024-02-15T06:46:07;7.70;99.90
12971;DHT22;6550;48.650;8.774;2024-02-15T06:48:37;7.70;99.90
12971;DHT22;6550;48.650;8.774;2024-02-15T06:51:04;7.70;99.90
12971;DHT22;6550;48.650;8.774;2024-02-15T06:53:34;7.50;99.90
12971;DHT22;6550;48.650;8.774;2024-02-15T06:58:31;7.80;99.90
12971;DHT22;6550;48.650;8.774;2024-02-15T07:03:31;8.10;99.90
12971;DHT22;6550;48.650;8.774;2024-02-15T07:06:02;7.80;99.90
12971;DHT22;6550;48.650;8.774;2024-02-15T07:08:32;8.20;99.90
12971;DHT22;6550;48.650;8.774;2024-02-15T07:10:59;7.90;99.90
12971;DHT22;6550;48.650;8.774;2024-02-15T07:13:28;7.60;99.90
12971;DHT22;6550;48.650;8.774;2024-02-15T07:15:55;8.10;99.90
12971;DHT22;6550;48.650;8.774;2024-02-15T07:18:22;8.20;99.90
12971;DHT22;6550;48.650;8.774;2024-02-15T07:20:54;8.00;99.90
12971;DHT22;6550;48.650;8.774;2024-02-15T07:23:23;8.30;99.90
12971;DHT22;6550;48.650;8.774;2024-02-15T07:25:54;8.40;99.90
12971;DHT22;6550;48.650;8.774;2024-02-15T07:28:23;8.30;99.90
12971;DHT22;6550;48.650;8.774;2024-02-15T07:30:55;8.20;99.90
12971;DHT22;6550;48.650;8.774;2024-02-15T07:33:22;8.40;99.90
12971;DHT22;6550;48.650;8.774;2024-02-15T07:38:18;8.40;99.90
12971;DHT22;6550;48.650;8.774;2024-02-15T07:40:49;8.50;99.90
12971;DHT22;6550;48.650;8.774;2024-02-15T07:43:18;8.60;99.90
12971;DHT22;6550;48.650;8.774;2024-02-15T07:48:14;8.50;99.90
12971;DHT22;6550;48.650;8.774;2024-02-15T07:50:44;8.60;99.90
12971;DHT22;6550;48.650;8.774;2024-02-15T07:55:38;8.80;99.90
12971;DHT22;6550;48.650;8.774;2024-02-15T08:00:39;8.80;99.90
12971;DHT22;6550;48.650;8.774;2024-02-15T08:03:08;9.00;99.90
12971;DHT22;6550;48.650;8.774;2024-02-15T08:08:06;9.00;99.90
12971;DHT22;6550;48.650;8.774;2024-02-15T08:10:33;9.00;99.90
12971;DHT22;6550;48.650;8.774;2024-02-15T08:13:00;9.20;99.90
12971;DHT22;6550;48.650;8.774;2024-02-15T08:15:29;9.00;99.90
12971;DHT22;6550;48.650;8.774;2024-02-15T08:17:56;9.00;99.90
12971;DHT22;6550;48.650;8.774;2024-02-15T08:20:28;9.00;99.90
12971;DHT22;6550;48.650;8.774;2024-02-15T08:22:58;9.20;99.90
12971;DHT22;6550;48.650;8.774;2024-02-15T08:25:25;9.10;99.90
12971;DHT22;6550;48.650;8.774;2024-02-15T08:27:52;9.20;99.90
12971;DHT22;6550;48.650;8.774;2024-02-15T08:30:19;9.30;99.90
12971;DHT22;6550;48.650;8.774;2024-02-15T08:32:53;9.20;99.90
12971;DHT22;6550;48.650;8.774;2024-02-15T08:35:23;9.30;99.90
12971;DHT22;6550;48.650;8.774;2024-02-15T08:37:51;9.00;99.90
12971;DHT22;6550;48.650;8.774;2024-02-15T08:40:19;9.60;99.90
12971;DHT22;6550;48.650;8.774;2024-02-15T08:42:51;9.40;99.90
12971;DHT22;6550;48.650;8.774;2024-02-15T08:45:18;9.40;99.90
12971;DHT22;6550;48.650;8.774;2024-02-15T08:50:19;9.90;99.90
12971;DHT22;6550;48.650;8.774;2024-02-15T08:52:50;10.20;99.90
12971;DHT22;6550;48.650;8.774;2024-02-15T08:55:16;10.30;99.90
12971;DHT22;6550;48.650;8.774;2024-02-15T08:57:53;10.30;99.90
12971;DHT22;6550;48.650;8.774;2024-02-15T09:00:20;10.80;99.90
12971;DHT22;6550;48.650;8.774;2024-02-15T09:05:19;11.10;99.90
12971;DHT22;6550;48.650;8.774;2024-02-15T09:10:18;11.70;99.90
12971;DHT22;6550;48.650;8.774;2024-02-15T09:12:45;11.80;99.90
12971;DHT22;6550;48.650;8.774;2024-02-15T09:15:16;12.80;99.90
12971;DHT22;6550;48.650;8.774;2024-02-15T09:17:46;11.80;99.90
12971;DHT22;6550;48.650;8.774;2024-02-15T09:20:17;12.10;99.90
12971;DHT22;6550;48.650;8.774;2024-02-15T09:22:51;12.00;99.90
12971;DHT22;6550;48.650;8.774;2024-02-15T09:25:19;12.90;99.90
12971;DHT22;6550;48.650;8.774;2024-02-15T09:27:46;12.10;99.90
12971;DHT22;6550;48.650;8.774;2024-02-15T09:30:18;12.40;99.90
12971;DHT22;6550;48.650;8.774;2024-02-15T09:32:45;12.50;99.90
12971;DHT22;6550;48.650;8.774;2024-02-15T09:35:13;12.30;99.90
12971;DHT22;6550;48.650;8.774;2024-02-15T09:37:47;12.40;99.90
12971;DHT22;6550;48.650;8.774;2024-02-15T09:40:19;12.60;99.90
12971;DHT22;6550;48.650;8.774;2024-02-15T09:42:47;12.80;99.90
12971;DHT22;6550;48.650;8.774;2024-02-15T09:47:44;12.90;99.90
12971;DHT22;6550;48.650;8.774;2024-02-15T09:50:18;13.30;99.90
12971;DHT22;6550;48.650;8.774;2024-02-15T09:52:54;13.00;99.90
12971;DHT22;6550;48.650;8.774;2024-02-15T09:55:24;13.10;99.90
12971;DHT22;6550;48.650;8.774;2024-02-15T09:57:51;13.10;99.90
12971;DHT22;6550;48.650;8.774;2024-02-15T10:00:21;13.20;99.90
12971;DHT22;6550;48.650;8.774;2024-02-15T10:02:50;13.50;99.90
12971;DHT22;6550;48.650;8.774;2024-02-15T10:05:20;13.20;99.90
12971;DHT22;6550;48.650;8.774;2024-02-15T10:10:18;13.30;99.90
12971;DHT22;6550;48.650;8.774;2024-02-15T10:12:51;13.30;99.90
12971;DHT22;6550;48.650;8.774;2024-02-15T10:15:36;13.30;99.90
12971;DHT22;6550;48.650;8.774;2024-02-15T10:18:10;13.40;99.90
12971;DHT22;6550;48.650;8.774;2024-02-15T10:20:41;13.60;99.90
12971;DHT22;6550;48.650;8.774;2024-02-15T10:23:13;13.60;99.90
12971;DHT22;6550;48.650;8.774;2024-02-15T10:25:47;13.50;99.90
12971;DHT22;6550;48.650;8.774;2024-02-15T10:30:47;13.90;99.90
12971;DHT22;6550;48.650;8.774;2024-02-15T10:38:16;14.20;99.90
12971;DHT22;6550;48.650;8.774;2024-02-15T10:40:46;14.20;99.90
12971;DHT22;6550;48.650;8.774;2024-02-15T10:45:43;14.50;99.90
12971;DHT22;6550;48.650;8.774;2024-02-15T10:50:40;14.60;99.90
12971;DHT22;6550;48.650;8.774;2024-02-15T10:53:30;14.60;99.90
12971;DHT22;6550;48.650;8.774;2024-02-15T10:56:08;15.00;99.90
12971;DHT22;6550;48.650;8.774;2024-02-15T11:01:34;14.80;99.90
12971;DHT22;6550;48.650;8.774;2024-02-15T11:06:38;15.00;99.90
12971;DHT22;6550;48.650;8.774;2024-02-15T11:09:10;15.00;99.90
12971;DHT22;6550;48.650;8.774;2024-02-15T11:16:55;15.50;99.90
12971;DHT22;6550;48.650;8.774;2024-02-15T11:22:01;15.50;99.90
12971;DHT22;6550;48.650;8.774;2024-02-15T11:24:31;15.40;99.90
12971;DHT22;6550;48.650;8.774;2024-02-15T11:27:04;15.70;99.90
12971;DHT22;6550;48.650;8.774;2024-02-15T11:29:52;15.70;99.90
12971;DHT22;6550;48.650;8.774;2024-02-15T11:32:48;15.90;99.90
12971;DHT22;6550;48.650;8.774;2024-02-15T11:35:25;15.70;99.90
12971;DHT22;6550;48.650;8.774;2024-02-15T11:37:59;15.70;99.90
12971;DHT22;6550;48.650;8.774;2024-02-15T11:46:12;15.90;99.90
12971;DHT22;6550;48.650;8.774;2024-02-15T11:48:43;16.30;99.90
12971;DHT22;6550;48.650;8.774;2024-02-15T11:51:33;15.90;99.90
12971;DHT22;6550;48.650;8.774;2024-02-15T11:54:06;16.10;99.90
12971;DHT22;6550;48.650;8.774;2024-02-15T11:56:53;16.20;99.90
12971;DHT22;6550;48.650;8.774;2024-02-15T11:59:42;16.30;99.90
12971;DHT22;6550;48.650;8.774;2024-02-15T12:02:20;16.30;99.90
12971;DHT22;6550;48.650;8.774;2024-02-15T12:05:06;16.50;99.90
12971;DHT22;6550;48.650;8.774;2024-02-15T12:07:51;16.50;99.90
12971;DHT22;6550;48.650;8.774;2024-02-15T12:10:37;16.60;99.90
12971;DHT22;6550;48.650;8.774;2024-02-15T12:16:08;16.70;99.90
12971;DHT22;6550;48.650;8.774;2024-02-15T12:18:56;17.00;99.90
12971;DHT22;6550;48.650;8.774;2024-02-15T12:21:27;16.80;99.90
12971;DHT22;6550;48.650;8.774;2024-02-15T12:23:55;17.10;99.90
12971;DHT22;6550;48.650;8.774;2024-02-15T12:26:24;17.10;99.90
12971;DHT22;6550;48.650;8.774;2024-02-15T12:28:57;17.20;99.90
12971;DHT22;6550;48.650;8.774;2024-02-15T12:31:25;16.80;99.90
12971;DHT22;6550;48.650;8.774;2024-02-15T12:34:04;17.00;99.90
12971;DHT22;6550;48.650;8.774;2024-02-15T12:36:36;17.20;99.90
12971;DHT22;6550;48.650;8.774;2024-02-15T12:39:05;16.90;99.90
12971;DHT22;6550;48.650;8.774;2024-02-15T12:41:50;16.90;99.90
12971;DHT22;6550;48.650;8.774;2024-02-15T12:44:19;16.80;99.90
12971;DHT22;6550;48.650;8.774;2024-02-15T12:46:57;17.20;99.90
12971;DHT22;6550;48.650;8.774;2024-02-15T12:55:19;17.40;99.90
12971;DHT22;6550;48.650;8.774;2024-02-15T12:57:53;17.20;99.90
12971;DHT22;6550;48.650;8.774;2024-02-15T13:00:23;17.20;99.90
12971;DHT22;6550;48.650;8.774;2024-02-15T13:02:58;17.20;99.90
12971;DHT22;6550;48.650;8.774;2024-02-15T13:05:26;17.30;99.90
12971;DHT22;6550;48.650;8.774;2024-02-15T13:07:55;17.20;99.90
12971;DHT22;6550;48.650;8.774;2024-02-15T13:10:22;17.50;99.90
12971;DHT22;6550;48.650;8.774;2024-02-15T13:12:52;17.30;99.90
12971;DHT22;6550;48.650;8.774;2024-02-15T13:15:19;17.20;99.90
12971;DHT22;6550;48.650;8.774;2024-02-15T13:17:48;17.50;99.90
12971;DHT22;6550;48.650;8.774;2024-02-15T13:20:19;17.40;99.90
12971;DHT22;6550;48.650;8.774;2024-02-15T13:22:47;17.20;99.90
12971;DHT22;6550;48.650;8.774;2024-02-15T13:25:17;17.40;99.90
12971;DHT22;6550;48.650;8.774;2024-02-15T13:30:13;17.20;99.90
12971;DHT22;6550;48.650;8.774;2024-02-15T13:32:40;17.30;99.90
12971;DHT22;6550;48.650;8.774;2024-02-15T13:35:11;17.10;99.90
12971;DHT22;6550;48.650;8.774;2024-02-15T13:37:47;17.30;99.90
12971;DHT22;6550;48.650;8.774;2024-02-15T13:40:21;16.90;99.90
12971;DHT22;6550;48.650;8.774;2024-02-15T13:42:53;17.00;99.90
12971;DHT22;6550;48.650;8.774;2024-02-15T13:45:31;17.10;99.90
12971;DHT22;6550;48.650;8.774;2024-02-15T13:48:03;17.10;99.90
12971;DHT22;6550;48.650;8.774;2024-02-15T13:50:37;17.30;99.90
12971;DHT22;6550;48.650;8.774;2024-02-15T13:53:07;17.40;99.90
12971;DHT22;6550;48.650;8.774;2024-02-15T13:55:36;17.00;99.90
12971;DHT22;6550;48.650;8.774;2024-02-15T14:00:39;17.10;99.90
12971;DHT22;6550;48.650;8.774;2024-02-15T14:08:08;17.20;99.90
12971;DHT22;6550;48.650;8.774;2024-02-15T14:13:06;17.10;99.90
12971;DHT22;6550;48.650;8.774;2024-02-15T14:15:38;17.10;99.90
12971;DHT22;6550;48.650;8.774;2024-02-15T14:18:10;17.40;99.90
12971;DHT22;6550;48.650;8.774;2024-02-15T14:20:39;17.00;99.90
12971;DHT22;6550;48.650;8.774;2024-02-15T14:23:09;17.30;99.90
12971;DHT22;6550;48.650;8.774;2024-02-15T14:25:41;16.90;99.90
12971;DHT22;6550;48.650;8.774;2024-02-15T14:28:11;16.90;99.90
12971;DHT22;6550;48.650;8.774;2024-02-15T14:30:41;17.20;99.90
12971;DHT22;6550;48.650;8.774;2024-02-15T14:33:26;16.90;99.90
12971;DHT22;6550;48.650;8.774;2024-02-15T14:35:56;16.90;99.90
12971;DHT22;6550;48.650;8.774;2024-02-15T14:38:24;17.10;99.90
12971;DHT22;6550;48.650;8.774;2024-02-15T14:40:51;16.60;99.90
12971;DHT22;6550;48.650;8.774;2024-02-15T14:43:23;16.70;99.90
12971;DHT22;6550;48.650;8.774;2024-02-15T14:45:53;16.80;99.90
12971;DHT22;6550;48.650;8.774;2024-02-15T14:48:23;16.80;99.90
12971;DHT22;6550;48.650;8.774;2024-02-15T14:50:51;16.60;99.90
12971;DHT22;6550;48.650;8.774;2024-02-15T14:55:49;16.50;99.90
12971;DHT22;6550;48.650;8.774;2024-02-15T14:58:19;16.70;99.90
12971;DHT22;6550;48.650;8.774;2024-02-15T15:00:46;16.40;99.90
12971;DHT22;6550;48.650;8.774;2024-02-15T15:03:15;16.40;99.90
12971;DHT22;6550;48.650;8.774;2024-02-15T15:05:43;16.70;99.90
12971;DHT22;6550;48.650;8.774;2024-02-15T15:08:29;16.30;99.90
12971;DHT22;6550;48.650;8.774;2024-02-15T15:11:15;16.00;99.90
12971;DHT22;6550;48.650;8.774;2024-02-15T15:16:31;16.20;99.90
12971;DHT22;6550;48.650;8.774;2024-02-15T15:19:03;16.30;99.90
12971;DHT22;6550;48.650;8.774;2024-02-15T15:24:00;16.20;99.90
12971;DHT22;6550;48.650;8.774;2024-02-15T15:26:27;16.00;99.90
12971;DHT22;6550;48.650;8.774;2024-02-15T15:28:54;16.10;99.90
12971;DHT22;6550;48.650;8.774;2024-02-15T15:31:26;16.00;99.90
12971;DHT22;6550;48.650;8.774;2024-02-15T15:33:53;15.80;99.90
12971;DHT22;6550;48.650;8.774;2024-02-15T15:38:51;16.00;99.90
12971;DHT22;6550;48.650;8.774;2024-02-15T15:41:23;15.80;99.90
12971;DHT22;6550;48.650;8.774;2024-02-15T15:43:52;16.00;99.90
12971;DHT22;6550;48.650;8.774;2024-02-15T15:46:19;15.70;99.90
12971;DHT22;6550;48.650;8.774;2024-02-15T15:48:48;15.70;99.90
12971;DHT22;6550;48.650;8.774;2024-02-15T15:51:15;15.40;99.90
12971;DHT22;6550;48.650;8.774;2024-02-15T15:53:43;15.50;99.90
12971;DHT22;6550;48.650;8.774;2024-02-15T15:56:16;15.30;99.90
12971;DHT22;6550;48.650;8.774;2024-02-15T15:58:43;15.30;99.90
12971;DHT22;6550;48.650;8.774;2024-02-15T16:03:39;15.10;99.90
12971;DHT22;6550;48.650;8.774;2024-02-15T16:06:06;15.10;99.90
12971;DHT22;6550;48.650;8.774;2024-02-15T16:08:37;15.40;99.90
12971;DHT22;6550;48.650;8.774;2024-02-15T16:11:04;14.90;99.90
12971;DHT22;6550;48.650;8.774;2024-02-15T16:13:33;15.10;99.90
12971;DHT22;6550;48.650;8.774;2024-02-15T16:18:36;14.90;99.90
12971;DHT22;6550;48.650;8.774;2024-02-15T16:21:04;14.80;99.90
12971;DHT22;6550;48.650;8.774;2024-02-15T16:23:31;14.60;99.90
12971;DHT22;6550;48.650;8.774;2024-02-15T16:25:58;14.50;99.90
12971;DHT22;6550;48.650;8.774;2024-02-15T16:28:29;14.40;99.90
12971;DHT22;6550;48.650;8.774;2024-02-15T16:33:26;14.30;99.90
12971;DHT22;6550;48.650;8.774;2024-02-15T16:35:55;14.40;99.90
12971;DHT22;6550;48.650;8.774;2024-02-15T16:38:23;14.30;99.90
12971;DHT22;6550;48.650;8.774;2024-02-15T16:40:50;14.20;99.90
12971;DHT22;6550;48.650;8.774;2024-02-15T16:43:19;14.20;99.90
12971;DHT22;6550;48.650;8.774;2024-02-15T16:45:48;14.20;99.90
12971;DHT22;6550;48.650;8.774;2024-02-15T16:48:17;14.00;99.90
12971;DHT22;6550;48.650;8.774;2024-02-15T16:50:47;14.20;99.90
12971;DHT22;6550;48.650;8.774;2024-02-15T16:53:16;13.90;99.90
12971;DHT22;6550;48.650;8.774;2024-02-15T16:55:43;14.20;99.90
12971;DHT22;6550;48.650;8.774;2024-02-15T16:58:10;13.90;99.90
12971;DHT22;6550;48.650;8.774;2024-02-15T17:00:37;13.60;99.90
12971;DHT22;6550;48.650;8.774;2024-02-15T17:03:09;13.70;99.90
12971;DHT22;6550;48.650;8.774;2024-02-15T17:05:40;13.60;99.90
12971;DHT22;6550;48.650;8.774;2024-02-15T17:13:07;13.70;99.90
12971;DHT22;6550;48.650;8.774;2024-02-15T17:15:34;13.40;99.90
12971;DHT22;6550;48.650;8.774;2024-02-15T17:18:02;13.30;99.90
12971;DHT22;6550;48.650;8.774;2024-02-15T17:20:30;13.60;99.90
12971;DHT22;6550;48.650;8.774;2024-02-15T17:22:57;13.50;99.90
12971;DHT22;6550;48.650;8.774;2024-02-15T17:25:26;13.30;99.90
12971;DHT22;6550;48.650;8.774;2024-02-15T17:27:56;13.30;99.90
12971;DHT22;6550;48.650;8.774;2024-02-15T17:32:51;13.30;99.90
12971;DHT22;6550;48.650;8.774;2024-02-15T17:35:21;13.40;99.90
12971;DHT22;6550;48.650;8.774;2024-02-15T17:37:49;13.20;99.90
12971;DHT22;6550;48.650;8.774;2024-02-15T17:45:11;12.90;99.90
12971;DHT22;6550;48.650;8.774;2024-02-15T17:47:41;12.80;99.90
12971;DHT22;6550;48.650;8.774;2024-02-15T17:50:11;12.80;99.90
12971;DHT22;6550;48.650;8.774;2024-02-15T17:52:43;12.80;99.90
12971;DHT22;6550;48.650;8.774;2024-02-15T17:55:15;12.80;99.90
12971;DHT22;6550;48.650;8.774;2024-02-15T17:57:46;12.70;99.90
12971;DHT22;6550;48.650;8.774;2024-02-15T18:00:14;13.00;99.90
12971;DHT22;6550;48.650;8.774;2024-02-15T18:02:47;12.20;99.90
12971;DHT22;6550;48.650;8.774;2024-02-15T18:05:20;12.70;99.90
12971;DHT22;6550;48.650;8.774;2024-02-15T18:07:48;12.60;99.90
12971;DHT22;6550;48.650;8.774;2024-02-15T18:10:16;12.50;99.90
12971;DHT22;6550;48.650;8.774;2024-02-15T18:12:47;12.60;99.90
12971;DHT22;6550;48.650;8.774;2024-02-15T18:20:20;12.70;99.90
12971;DHT22;6550;48.650;8.774;2024-02-15T18:22:49;12.40;99.90
12971;DHT22;6550;48.650;8.774;2024-02-15T18:25:16;12.40;99.90
12971;DHT22;6550;48.650;8.774;2024-02-15T18:27:45;12.50;99.90
12971;DHT22;6550;48.650;8.774;2024-02-15T18:30:14;12.50;99.90
12971;DHT22;6550;48.650;8.774;2024-02-15T18:32:46;12.70;99.90
12971;DHT22;6550;48.650;8.774;2024-02-15T18:40:13;12.30;99.90
12971;DHT22;6550;48.650;8.774;2024-02-15T18:47:49;12.20;99.90
12971;DHT22;6550;48.650;8.774;2024-02-15T18:50:17;12.10;99.90